Time;durP1;ratioP1;P1;durP2;ratioP2;P2;SDS_P1;SDS_P2;PMS_P1;PMS_P2;Temp;Humidity;BMP_temperature;BMP_pressure;BME280_temperature;BME280_humidity;BME280_pressure;Samples;Min_cycle;Max_cycle;Signal;HPM_P1;HPM_P2
2021/03/04 00:00:44;;;;;;;19.15;9.75;;;;;;;5.05;67.99;96997.78;5053248;28;20053;-67
2021/03/04 00:03:10;;;;;;;18.75;9.25;;;;;;;5.03;67.97;97005.34;5053055;28;20045;-67
2021/03/04 00:05:37;;;;;;;14.10;8.38;;;;;;;5.03;67.80;96999.94;5053485;28;20507;-67
2021/03/04 00:08:04;;;;;;;15.85;9.50;;;;;;;5.00;67.65;96995.88;5052898;28;20090;-67
2021/03/04 00:10:31;;;;;;;16.38;8.70;;;;;;;4.98;67.45;96988.03;5053815;28;20049;-67
2021/03/04 00:12:57;;;;;;;14.60;8.32;;;;;;;4.97;67.38;96986.44;5052887;28;20049;-67
2021/03/04 00:15:25;;;;;;;15.25;8.68;;;;;;;4.95;67.38;96988.56;5052402;28;20052;-67
2021/03/04 00:17:52;;;;;;;17.45;8.63;;;;;;;4.95;67.22;96987.75;5052622;28;20111;-67
2021/03/04 00:20:20;;;;;;;14.82;7.93;;;;;;;4.94;67.21;96981.56;5053066;28;20049;-67
2021/03/04 00:22:46;;;;;;;14.13;8.02;;;;;;;4.93;67.30;96977.25;5053064;28;20048;-67
2021/03/04 00:25:14;;;;;;;13.50;8.13;;;;;;;4.93;67.18;96977.25;5052614;28;20056;-67
2021/03/04 00:27:41;;;;;;;16.88;7.57;;;;;;;4.90;67.10;96975.06;5051568;28;20045;-67
2021/03/04 00:30:09;;;;;;;14.18;7.82;;;;;;;4.87;67.02;96970.22;5051686;28;20053;-68
2021/03/04 00:32:35;;;;;;;14.23;7.88;;;;;;;4.91;67.30;96971.31;5052042;28;20392;-67
2021/03/04 00:35:01;;;;;;;13.00;7.68;;;;;;;4.93;67.03;96969.13;5050110;28;20049;-69
2021/03/04 00:37:28;;;;;;;13.20;7.63;;;;;;;4.96;67.25;96967.81;5052101;28;20456;-67
2021/03/04 00:39:54;;;;;;;13.75;7.72;;;;;;;4.96;67.24;96963.22;5052254;28;20499;-67
2021/03/04 00:42:20;;;;;;;18.33;7.38;;;;;;;4.92;66.85;96967.53;5053209;28;20119;-67
2021/03/04 00:44:46;;;;;;;15.45;7.18;;;;;;;4.93;66.81;96962.94;5051876;28;20087;-67
2021/03/04 00:47:12;;;;;;;13.48;7.70;;;;;;;4.94;66.74;96951.88;5051975;28;20049;-67
2021/03/04 00:49:39;;;;;;;16.85;7.68;;;;;;;4.95;66.74;96952.66;5062565;28;20044;-67
2021/03/04 00:52:05;;;;;;;14.27;7.72;;;;;;;4.97;66.98;96948.66;5072296;28;20040;-67
2021/03/04 00:54:31;;;;;;;12.07;6.80;;;;;;;5.00;66.97;96957.28;5072700;28;20048;-67
2021/03/04 00:56:57;;;;;;;12.43;7.00;;;;;;;5.01;66.77;96953.50;5069788;28;20079;-67
2021/03/04 00:59:24;;;;;;;15.88;7.30;;;;;;;5.01;66.72;96950.78;5052659;28;20041;-67
2021/03/04 01:01:50;;;;;;;12.13;7.05;;;;;;;5.02;66.81;96947.03;5052084;28;20068;-67
2021/03/04 01:04:16;;;;;;;12.07;6.97;;;;;;;4.95;66.44;96939.97;5052676;28;20412;-67
2021/03/04 01:06:43;;;;;;;15.05;7.68;;;;;;;4.94;66.32;96934.88;5051932;28;20041;-67
2021/03/04 01:09:09;;;;;;;14.40;8.25;;;;;;;4.89;66.12;96932.16;5052520;28;20049;-67
2021/03/04 01:11:35;;;;;;;14.95;7.50;;;;;;;4.84;66.45;96935.66;5051755;28;20199;-67
2021/03/04 01:14:02;;;;;;;10.65;6.78;;;;;;;4.83;66.46;96934.03;5052204;28;20072;-69
2021/03/04 01:16:28;;;;;;;14.60;7.05;;;;;;;4.76;66.65;96930.78;5052448;28;20067;-67
2021/03/04 01:18:54;;;;;;;16.33;6.80;;;;;;;4.75;66.70;96917.56;5051473;28;20067;-67
2021/03/04 01:21:21;;;;;;;11.88;7.00;;;;;;;4.72;66.57;96925.09;5052058;28;20044;-67
2021/03/04 01:23:46;;;;;;;14.77;7.05;;;;;;;4.71;66.82;96925.38;5052602;28;20048;-67
2021/03/04 01:26:13;;;;;;;12.50;7.45;;;;;;;4.73;66.62;96909.72;5052382;28;20530;-67
2021/03/04 01:28:39;;;;;;;12.70;6.82;;;;;;;4.71;66.42;96909.19;5051347;28;20571;-67
2021/03/04 01:31:05;;;;;;;13.60;6.95;;;;;;;4.68;66.79;96901.63;5052468;28;20045;-67
2021/03/04 01:33:32;;;;;;;13.32;6.68;;;;;;;4.68;66.63;96898.94;5051131;28;20049;-67
2021/03/04 01:35:58;;;;;;;13.20;6.65;;;;;;;4.70;66.65;96899.50;5052262;28;20052;-67
2021/03/04 01:38:24;;;;;;;12.48;6.55;;;;;;;4.72;66.31;96902.72;5051008;28;20099;-67
2021/03/04 01:40:50;;;;;;;12.43;6.57;;;;;;;4.75;65.93;96894.09;5051540;28;20045;-67
2021/03/04 01:43:16;;;;;;;13.57;6.70;;;;;;;4.77;65.13;96885.72;5051316;28;20056;-67
2021/03/04 01:45:42;;;;;;;10.07;6.10;;;;;;;4.79;65.47;96881.69;5051507;28;20072;-67
2021/03/04 01:48:08;;;;;;;13.65;6.70;;;;;;;4.81;64.97;96879.53;5051555;28;20080;-67
2021/03/04 01:50:35;;;;;;;11.75;6.50;;;;;;;4.83;65.03;96866.56;5050324;28;20044;-67
2021/03/04 01:53:01;;;;;;;11.68;6.35;;;;;;;4.84;65.00;96868.19;5052299;28;20049;-67
2021/03/04 01:55:27;;;;;;;13.38;6.00;;;;;;;4.88;64.87;96871.97;5050585;28;20041;-67
2021/03/04 01:57:54;;;;;;;11.65;6.40;;;;;;;4.91;64.59;96868.75;5051529;28;20656;-67
2021/03/04 02:00:22;;;;;;;14.25;5.88;;;;;;;4.96;64.44;96863.38;5049985;28;20048;-67
2021/03/04 02:02:48;;;;;;;11.40;6.10;;;;;;;5.00;65.04;96855.50;5051801;28;20504;-67
2021/03/04 02:05:15;;;;;;;8.77;5.55;;;;;;;5.02;64.55;96855.28;5050617;28;20056;-67
2021/03/04 02:07:54;;;;;;;10.30;5.93;;;;;;;5.03;64.39;96849.59;5051306;28;20049;-67
2021/03/04 02:10:26;;;;;;;9.90;6.00;;;;;;;5.05;64.07;96842.03;5050984;28;20507;-67
2021/03/04 02:12:57;;;;;;;13.57;6.38;;;;;;;5.06;63.97;96842.81;5050876;28;20072;-67
2021/03/04 02:15:28;;;;;;;10.95;5.78;;;;;;;5.09;63.86;96836.91;5051090;28;20045;-67
2021/03/04 02:17:56;;;;;;;10.48;5.95;;;;;;;5.10;63.76;96843.91;5050316;28;20049;-67
2021/03/04 02:20:46;;;;;;;10.65;5.78;;;;;;;5.10;63.61;96835.81;5050585;28;20059;-67
2021/03/04 02:23:33;;;;;;;11.25;6.00;;;;;;;5.09;63.47;96836.91;5050636;28;20037;-68
2021/03/04 02:26:10;;;;;;;10.90;5.80;;;;;;;5.08;63.78;96824.50;5050354;28;20053;-67
2021/03/04 02:28:37;;;;;;;10.85;6.30;;;;;;;5.07;63.71;96823.69;5051177;28;20476;-67
2021/03/04 02:31:09;;;;;;;12.73;6.00;;;;;;;5.08;63.98;96821.78;5049782;28;20048;-67
2021/03/04 02:33:36;;;;;;;12.98;5.65;;;;;;;5.07;63.57;96820.19;5050808;28;20063;-67
2021/03/04 02:36:04;;;;;;;11.02;5.90;;;;;;;5.06;63.50;96815.84;5048615;28;20049;-67
2021/03/04 02:38:30;;;;;;;9.68;5.70;;;;;;;5.08;63.69;96829.88;5050588;28;20098;-67
2021/03/04 02:40:59;;;;;;;10.57;5.40;;;;;;;5.10;63.44;96825.00;5049452;28;20051;-67
2021/03/04 02:43:27;;;;;;;11.50;5.53;;;;;;;5.10;63.30;96825.00;5050130;28;20049;-67
2021/03/04 02:45:55;;;;;;;10.68;5.38;;;;;;;5.13;63.06;96819.09;5050987;28;20447;-68
2021/03/04 02:48:22;;;;;;;9.00;5.45;;;;;;;5.14;63.11;96820.69;5049032;28;20679;-67
2021/03/04 02:50:51;;;;;;;9.07;5.22;;;;;;;5.13;63.17;96821.78;5051208;28;20056;-67
2021/03/04 02:53:17;;;;;;;12.05;5.53;;;;;;;5.14;62.89;96813.41;5049635;28;20519;-67
2021/03/04 02:55:45;;;;;;;11.57;5.28;;;;;;;5.15;63.10;96817.72;5050847;28;20057;-67
2021/03/04 02:58:12;;;;;;;9.02;5.20;;;;;;;5.21;63.16;96815.81;5049527;28;20048;-67
2021/03/04 03:00:39;;;;;;;10.48;5.70;;;;;;;5.23;63.17;96816.38;5050570;28;20052;-67
2021/03/04 03:03:09;;;;;;;8.65;5.20;;;;;;;5.24;62.99;96818.00;5049896;28;20045;-67
2021/03/04 03:05:37;;;;;;;10.70;4.95;;;;;;;5.28;62.54;96815.56;5050172;28;20040;-67
2021/03/04 03:08:04;;;;;;;11.35;5.40;;;;;;;5.30;62.41;96808.78;5050018;28;20049;-68
2021/03/04 03:10:31;;;;;;;10.80;5.45;;;;;;;5.33;62.38;96813.66;5050500;28;20076;-67
2021/03/04 03:12:59;;;;;;;9.00;4.93;;;;;;;5.38;62.42;96804.75;5050976;28;20041;-67
2021/03/04 03:15:26;;;;;;;10.45;5.07;;;;;;;5.39;61.85;96815.25;5048880;28;20527;-68
2021/03/04 03:17:52;;;;;;;9.98;4.85;;;;;;;5.43;62.23;96810.94;5050756;28;20086;-68
2021/03/04 03:20:21;;;;;;;7.45;4.55;;;;;;;5.47;61.90;96812.00;5048688;28;20049;-68
2021/03/04 03:22:48;;;;;;;7.60;4.47;;;;;;;5.52;61.87;96804.97;5050506;28;20049;-68
2021/03/04 03:25:15;;;;;;;10.70;4.72;;;;;;;5.55;61.63;96807.13;5049564;28;20045;-67
2021/03/04 03:27:43;;;;;;;8.80;3.97;;;;;;;5.59;61.23;96808.19;5049938;28;20052;-68
2021/03/04 03:30:13;;;;;;;9.48;4.45;;;;;;;5.64;61.69;96808.19;5049786;28;20041;-67
2021/03/04 03:32:43;;;;;;;10.10;4.18;;;;;;;5.68;60.74;96809.22;5049384;28;20049;-67
2021/03/04 03:35:10;;;;;;;8.38;4.82;;;;;;;5.68;59.15;96801.94;5050090;28;20423;-67
2021/03/04 03:37:38;;;;;;;10.50;4.35;;;;;;;5.71;59.29;96801.41;5049176;28;20049;-67
2021/03/04 03:40:06;;;;;;;9.27;4.57;;;;;;;5.78;60.25;96809.19;5050196;28;20045;-67
2021/03/04 03:42:32;;;;;;;9.63;4.53;;;;;;;5.83;59.68;96809.19;5049401;28;20044;-67
2021/03/04 03:44:59;;;;;;;8.15;4.35;;;;;;;5.88;58.98;96806.47;5050145;28;20049;-67
2021/03/04 03:47:27;;;;;;;10.63;4.13;;;;;;;5.92;58.51;96812.97;5043973;28;20508;-67
2021/03/04 03:49:55;;;;;;;7.75;4.28;;;;;;;5.84;57.45;96808.09;5049896;28;20060;-67
2021/03/04 03:52:21;;;;;;;9.10;4.35;;;;;;;5.87;57.48;96817.56;5049601;28;20048;-67
2021/03/04 03:54:48;;;;;;;8.00;3.72;;;;;;;5.83;57.22;96817.28;5049501;28;20056;-67
2021/03/04 03:57:15;;;;;;;9.60;4.00;;;;;;;5.76;57.57;96812.19;5049809;28;20049;-67
2021/03/04 03:59:43;;;;;;;9.85;4.30;;;;;;;5.82;57.48;96815.69;5049123;28;20077;-67
2021/03/04 04:02:10;;;;;;;8.52;3.95;;;;;;;5.84;57.50;96810.78;5050013;28;20413;-67
2021/03/04 04:04:36;;;;;;;11.13;4.35;;;;;;;5.84;57.42;96816.19;5049314;28;20045;-67
2021/03/04 04:07:04;;;;;;;9.45;4.00;;;;;;;5.82;57.80;96812.16;5049727;28;20524;-67
2021/03/04 04:09:31;;;;;;;7.78;4.00;;;;;;;5.83;57.39;96813.78;5049338;28;20460;-67
2021/03/04 04:11:58;;;;;;;16.42;4.03;;;;;;;5.83;57.60;96809.19;5049715;28;20049;-67
2021/03/04 04:14:24;;;;;;;7.53;4.05;;;;;;;5.89;57.42;96810.78;5049059;28;20888;-67
2021/03/04 04:16:50;;;;;;;9.02;4.43;;;;;;;5.95;57.51;96804.31;5048829;28;20045;-67
2021/03/04 04:19:16;;;;;;;8.07;3.97;;;;;;;6.01;57.15;96807.81;5049215;28;20053;-67
2021/03/04 04:21:42;;;;;;;6.97;4.28;;;;;;;5.99;57.10;96808.06;5049424;28;20044;-67
2021/03/04 04:24:10;;;;;;;7.82;4.50;;;;;;;6.04;57.83;96804.53;5053383;28;20522;-67
2021/03/04 04:26:36;;;;;;;10.40;4.60;;;;;;;6.08;57.36;96799.38;5052503;28;20033;-67
2021/03/04 04:29:03;;;;;;;10.02;4.03;;;;;;;6.12;58.87;96805.84;5053334;28;20171;-68
2021/03/04 04:31:29;;;;;;;12.88;4.45;;;;;;;6.13;58.46;96792.06;5052475;28;20500;-67
2021/03/04 04:33:55;;;;;;;8.05;4.70;;;;;;;6.15;58.18;96783.66;5053479;28;20072;-67
2021/03/04 04:36:21;;;;;;;12.85;4.22;;;;;;;6.16;58.61;96785.25;5052428;28;20717;-67
2021/03/04 04:38:47;;;;;;;10.25;4.28;;;;;;;6.18;58.71;96788.50;5052700;28;20068;-67
2021/03/04 04:41:13;;;;;;;10.15;4.50;;;;;;;6.22;58.50;96784.19;5052655;28;20051;-67
2021/03/04 04:43:39;;;;;;;8.63;4.72;;;;;;;6.23;58.96;96791.19;5052562;28;20041;-67
2021/03/04 04:46:05;;;;;;;9.90;4.70;;;;;;;6.21;58.57;96782.53;5052815;28;20423;-67
2021/03/04 04:48:31;;;;;;;11.00;4.97;;;;;;;6.22;58.09;96784.19;5051787;28;20044;-67
2021/03/04 04:50:58;;;;;;;9.60;4.60;;;;;;;6.21;58.05;96774.41;5053304;28;20052;-67
2021/03/04 04:53:24;;;;;;;9.70;5.00;;;;;;;6.23;58.19;96781.19;5051792;28;20072;-67
2021/03/04 04:55:50;;;;;;;8.77;4.68;;;;;;;6.24;59.00;96771.97;5053019;28;20182;-67
2021/03/04 04:58:16;;;;;;;11.27;4.97;;;;;;;6.25;59.22;96773.59;5051796;28;20056;-67
2021/03/04 05:00:42;;;;;;;13.13;4.63;;;;;;;6.25;58.55;96767.38;5052797;28;20045;-67
2021/03/04 05:03:09;;;;;;;11.65;4.78;;;;;;;6.24;58.39;96763.06;5052069;28;20049;-67
2021/03/04 05:05:36;;;;;;;10.50;4.53;;;;;;;6.24;57.87;96765.75;5052430;28;20053;-67
2021/03/04 05:08:01;;;;;;;9.07;4.50;;;;;;;6.24;57.75;96763.06;5051042;28;20041;-68
2021/03/04 05:10:28;;;;;;;8.50;4.90;;;;;;;6.23;57.85;96753.34;5051915;28;20065;-67
2021/03/04 05:12:54;;;;;;;10.00;5.47;;;;;;;6.22;57.89;96759.84;5052915;28;20048;-67
2021/03/04 05:15:21;;;;;;;11.43;5.10;;;;;;;6.22;57.96;96757.13;5051266;28;20507;-67
2021/03/04 05:17:47;;;;;;;7.68;4.97;;;;;;;6.22;57.68;96751.72;5052154;28;20045;-67
2021/03/04 05:20:15;;;;;;;10.75;5.20;;;;;;;6.19;57.23;96744.16;5051177;28;20064;-67
2021/03/04 05:22:41;;;;;;;12.20;5.50;;;;;;;6.18;57.09;96746.06;5052534;28;20087;-67
2021/03/04 05:25:08;;;;;;;9.60;5.30;;;;;;;6.18;56.39;96742.53;5051505;28;20037;-68
2021/03/04 05:27:34;;;;;;;11.30;5.18;;;;;;;6.20;57.26;96743.06;5051923;28;20063;-67
2021/03/04 05:30:00;;;;;;;16.27;5.30;;;;;;;6.19;57.50;96741.44;5052174;28;20045;-67
2021/03/04 05:32:26;;;;;;;13.13;5.60;;;;;;;6.19;57.26;96736.03;5051091;28;20078;-67
2021/03/04 05:34:52;;;;;;;14.63;5.35;;;;;;;6.20;57.68;96737.66;5052572;28;20048;-67
2021/03/04 05:37:19;;;;;;;15.35;5.47;;;;;;;6.22;57.74;96736.31;5050763;28;20075;-67
2021/03/04 05:39:45;;;;;;;13.13;5.15;;;;;;;6.21;57.39;96728.44;5052521;28;20064;-67
2021/03/04 05:42:11;;;;;;;12.88;5.40;;;;;;;6.23;58.09;96737.09;5050834;28;20041;-67
2021/03/04 05:44:38;;;;;;;9.43;5.55;;;;;;;6.21;57.71;96723.03;5052351;28;20044;-67
2021/03/04 05:47:04;;;;;;;9.38;5.32;;;;;;;6.20;57.79;96721.44;5050346;28;20045;-67
2021/03/04 05:49:36;;;;;;;12.88;5.97;;;;;;;6.22;57.16;96724.69;5051805;28;20048;-67
2021/03/04 05:52:07;;;;;;;9.70;5.13;;;;;;;6.22;57.11;96722.78;5051318;28;20041;-68
2021/03/04 05:54:38;;;;;;;12.02;5.50;;;;;;;6.22;57.67;96725.47;5051368;28;20045;-67
2021/03/04 05:57:05;;;;;;;10.27;5.82;;;;;;;6.21;57.66;96728.44;5051542;28;20103;-68
2021/03/04 05:59:31;;;;;;;9.75;5.60;;;;;;;6.20;57.33;96724.13;5050674;28;20048;-67
2021/03/04 06:01:58;;;;;;;11.95;5.57;;;;;;;6.20;57.74;96716.03;5052063;28;20045;-67
2021/03/04 06:04:24;;;;;;;17.85;6.65;;;;;;;6.19;57.63;96725.22;5050396;28;20037;-67
2021/03/04 06:06:50;;;;;;;13.90;5.93;;;;;;;6.20;57.49;96724.13;5051918;28;20471;-67
2021/03/04 06:09:16;;;;;;;13.85;5.78;;;;;;;6.18;57.69;96723.63;5050333;28;20052;-67
2021/03/04 06:11:43;;;;;;;14.73;5.28;;;;;;;6.21;58.31;96733.84;5051388;28;20045;-67
2021/03/04 06:14:09;;;;;;;12.30;5.95;;;;;;;6.23;58.72;96726.28;5050364;28;20530;-67
2021/03/04 06:16:35;;;;;;;12.35;5.90;;;;;;;6.27;58.07;96732.75;5050478;28;20072;-67
2021/03/04 06:19:01;;;;;;;15.73;6.07;;;;;;;6.26;57.98;96731.94;5050883;28;20497;-67
2021/03/04 06:21:28;;;;;;;14.23;6.70;;;;;;;6.27;58.18;96733.56;5050148;28;20120;-67
2021/03/04 06:23:56;;;;;;;22.38;5.90;;;;;;;6.26;57.94;96731.13;5051370;28;20526;-67
2021/03/04 06:26:27;;;;;;;14.32;5.65;;;;;;;6.29;58.04;96730.56;5050513;28;20041;-67
2021/03/04 06:28:55;;;;;;;13.05;5.25;;;;;;;6.34;57.90;96735.94;5051590;28;20045;-67
2021/03/04 06:31:21;;;;;;;12.45;5.60;;;;;;;6.35;56.40;96734.03;5049875;28;20049;-67
2021/03/04 06:33:48;;;;;;;14.90;5.60;;;;;;;6.38;57.53;96728.09;5051158;28;20053;-67
2021/03/04 06:36:15;;;;;;;12.95;6.07;;;;;;;6.42;58.02;96729.94;5050067;28;20073;-67
2021/03/04 06:38:52;;;;;;;18.83;5.78;;;;;;;6.47;57.14;96732.63;5049881;28;20044;-67
2021/03/04 06:41:19;;;;;;;16.52;6.32;;;;;;;6.48;56.96;96723.41;5050949;28;20037;-67
2021/03/04 06:43:46;;;;;;;15.43;6.35;;;;;;;6.48;56.21;96718.00;5050096;28;20056;-67
2021/03/04 06:46:13;;;;;;;17.38;6.72;;;;;;;6.52;56.46;96724.47;5050202;28;20052;-67
2021/03/04 06:48:51;;;;;;;14.40;5.70;;;;;;;6.57;55.76;96722.78;5049213;28;20051;-67
2021/03/04 06:51:17;;;;;;;11.60;5.38;;;;;;;6.57;54.82;96720.06;5049469;28;20459;-67
2021/03/04 06:53:50;;;;;;;18.30;5.35;;;;;;;6.59;55.52;96715.22;5050135;28;20045;-68
2021/03/04 06:56:16;;;;;;;11.60;4.57;;;;;;;6.64;54.33;96715.16;5050321;28;20049;-67
2021/03/04 06:58:42;;;;;;;11.30;5.15;;;;;;;6.65;54.40;96712.16;5050312;28;20051;-67
2021/03/04 07:01:09;;;;;;;10.90;5.13;;;;;;;6.69;54.54;96712.41;5049825;28;20388;-68
2021/03/04 07:03:41;;;;;;;11.07;4.97;;;;;;;6.71;55.18;96702.91;5050434;28;20049;-67
2021/03/04 07:06:09;;;;;;;15.60;5.63;;;;;;;6.75;56.59;96695.03;5049368;28;20049;-68
2021/03/04 07:08:38;;;;;;;13.70;4.72;;;;;;;6.80;57.57;96700.41;5050763;28;20045;-67
2021/03/04 07:11:05;;;;;;;14.10;5.15;;;;;;;6.85;57.93;96705.78;5049279;28;20503;-68
2021/03/04 07:13:33;;;;;;;11.73;5.03;;;;;;;6.85;57.45;96700.34;5050709;28;20049;-73
2021/03/04 07:16:05;;;;;;;14.23;5.50;;;;;;;6.83;57.83;96705.22;5049685;28;20049;-73
2021/03/04 07:18:37;;;;;;;13.82;5.43;;;;;;;6.86;58.01;96701.97;5049580;28;20087;-74
2021/03/04 07:21:07;;;;;;;15.23;4.95;;;;;;;6.90;57.75;96713.84;5049883;28;20059;-73
2021/03/04 07:23:36;;;;;;;11.68;5.18;;;;;;;6.94;57.83;96704.06;5049962;28;20044;-72
2021/03/04 07:26:03;;;;;;;13.27;5.13;;;;;;;6.99;57.24;96712.09;5050139;28;20507;-72
2021/03/04 07:28:30;;;;;;;10.38;4.80;;;;;;;7.04;56.24;96720.19;5046451;28;21316;-72
2021/03/04 07:30:56;;;;;;;11.98;4.82;;;;;;;7.06;55.63;96706.38;5030661;28;20132;-72
2021/03/04 07:33:23;;;;;;;13.98;5.85;;;;;;;7.05;54.34;96700.16;5036359;28;20049;-71
2021/03/04 07:35:50;;;;;;;10.43;5.47;;;;;;;7.12;55.17;96707.13;5047340;28;20048;-71
2021/03/04 07:38:24;;;;;;;12.95;5.78;;;;;;;7.13;54.89;96695.19;5046223;28;20087;-71
2021/03/04 07:41:01;;;;;;;11.73;5.93;;;;;;;7.18;54.86;96701.34;5047377;28;20048;-72
2021/03/04 07:43:27;;;;;;;11.02;5.28;;;;;;;7.25;54.78;96703.72;5046927;28;20053;-71
2021/03/04 07:45:53;;;;;;;12.98;4.90;;;;;;;7.22;53.26;96709.72;5045291;28;20053;-71
2021/03/04 07:48:19;;;;;;;10.52;4.90;;;;;;;7.26;53.72;96699.94;5047522;28;20053;-71
2021/03/04 07:50:55;;;;;;;10.48;4.88;;;;;;;7.30;52.97;96700.94;5047799;28;20134;-70
2021/03/04 07:53:22;;;;;;;11.05;5.40;;;;;;;7.35;52.73;96687.34;5049520;28;20049;-71
2021/03/04 07:55:50;;;;;;;12.80;5.80;;;;;;;7.38;52.56;96681.38;5049430;28;20048;-70
2021/03/04 07:58:16;;;;;;;15.50;6.85;;;;;;;7.44;52.43;96682.91;5052719;28;20095;-68
2021/03/04 08:00:42;;;;;;;17.65;8.35;;;;;;;7.53;52.92;96683.09;5053545;28;20496;-69
2021/03/04 08:03:08;;;;;;;11.18;5.82;;;;;;;7.60;51.98;96683.53;5053344;28;20056;-69
2021/03/04 08:05:36;;;;;;;11.30;4.88;;;;;;;7.69;51.57;96675.56;5053714;28;20048;-68
2021/03/04 08:08:13;;;;;;;13.15;5.75;;;;;;;7.76;51.29;96665.97;5052780;28;20061;-71
2021/03/04 08:10:44;;;;;;;11.18;5.93;;;;;;;7.81;51.46;96662.38;5053947;28;20408;-69
2021/03/04 08:13:11;;;;;;;12.00;4.95;;;;;;;7.86;51.02;96659.59;5052570;28;20052;-69
2021/03/04 08:15:40;;;;;;;15.40;6.00;;;;;;;7.92;50.95;96661.13;5054049;28;20049;-69
2021/03/04 08:18:16;;;;;;;13.88;5.80;;;;;;;8.02;50.79;96658.28;5052134;28;20041;-69
2021/03/04 08:20:42;;;;;;;14.60;5.53;;;;;;;8.07;49.89;96660.91;5053493;28;20040;-68
2021/03/04 08:23:08;;;;;;;15.18;4.72;;;;;;;8.15;49.58;96655.94;5053011;28;20048;-69
2021/03/04 08:25:36;;;;;;;10.43;5.47;;;;;;;8.21;50.22;96650.13;5052968;28;20037;-68
2021/03/04 08:28:04;;;;;;;9.75;5.10;;;;;;;8.25;50.36;96650.34;5052835;28;20075;-70
2021/03/04 08:30:32;;;;;;;11.20;4.85;;;;;;;8.30;49.87;96637.50;5052289;28;20045;-68
2021/03/04 08:33:00;;;;;;;12.65;4.82;;;;;;;8.36;49.75;96646.41;5053376;28;20065;-68
2021/03/04 08:35:27;;;;;;;11.50;5.07;;;;;;;8.40;49.75;96644.69;5052195;28;20045;-69
2021/03/04 08:38:01;;;;;;;11.35;4.95;;;;;;;8.49;49.47;96634.78;5053044;28;20045;-69
2021/03/04 08:40:28;;;;;;;12.98;5.40;;;;;;;8.57;49.27;96636.81;5052411;28;20512;-70
2021/03/04 08:42:54;;;;;;;10.40;5.10;;;;;;;8.66;48.97;96639.63;5051629;28;20052;-70
2021/03/04 08:45:31;;;;;;;11.82;5.97;;;;;;;8.78;49.09;96636.47;5052404;28;20048;-69
2021/03/04 08:47:58;;;;;;;14.13;5.88;;;;;;;8.90;48.87;96625.91;5051638;28;20048;-69
2021/03/04 08:50:34;;;;;;;13.80;5.03;;;;;;;9.04;49.67;96628.66;5052777;28;20049;-69
2021/03/04 08:53:00;;;;;;;11.88;4.85;;;;;;;9.13;48.57;96626.81;5052271;28;20037;-69
2021/03/04 08:55:26;;;;;;;12.70;5.20;;;;;;;9.24;49.25;96627.41;5052775;28;20491;-68
2021/03/04 08:57:52;;;;;;;10.27;4.88;;;;;;;9.44;49.52;96623.47;5050691;28;20044;-69
2021/03/04 09:00:19;;;;;;;10.38;5.28;;;;;;;9.60;48.61;96619.31;5052416;28;20478;-68
2021/03/04 09:02:46;;;;;;;11.93;5.15;;;;;;;9.75;48.71;96626.34;5052321;28;20060;-69
2021/03/04 09:05:22;;;;;;;11.82;4.72;;;;;;;9.90;46.31;96620.56;5052295;28;20041;-68
2021/03/04 09:07:48;;;;;;;8.25;4.47;;;;;;;9.96;44.21;96616.63;5051967;28;20491;-68
2021/03/04 09:10:15;;;;;;;12.10;4.47;;;;;;;9.97;43.22;96617.41;5050490;28;20507;-68
2021/03/04 09:12:43;;;;;;;12.15;4.35;;;;;;;9.85;43.38;96617.97;5052603;28;20492;-68
2021/03/04 09:15:10;;;;;;;12.30;4.43;;;;;;;9.77;43.89;96618.72;5050106;28;20056;-69
2021/03/04 09:17:40;;;;;;;9.57;4.55;;;;;;;9.74;43.85;96620.13;5052002;28;20103;-69
2021/03/04 09:20:08;;;;;;;13.70;4.63;;;;;;;9.76;43.57;96617.91;5051543;28;20053;-69
2021/03/04 09:22:34;;;;;;;20.15;4.90;;;;;;;9.83;44.09;96606.59;5052314;28;20411;-69
2021/03/04 09:25:02;;;;;;;12.77;4.15;;;;;;;9.67;44.24;96601.50;5050582;28;20068;-69
2021/03/04 09:27:29;;;;;;;12.93;4.50;;;;;;;9.77;45.14;96607.84;5051474;28;20732;-69
2021/03/04 09:29:55;;;;;;;11.18;4.60;;;;;;;9.92;44.20;96591.97;5050651;28;20095;-69
2021/03/04 09:32:30;;;;;;;10.45;4.45;;;;;;;9.77;43.84;96594.22;5051511;28;20069;-69
2021/03/04 09:34:56;;;;;;;17.42;8.77;;;;;;;9.96;44.05;96591.34;5052142;28;20455;-68
2021/03/04 09:37:24;;;;;;;17.95;4.57;;;;;;;9.98;43.98;96581.78;5050907;28;20086;-68
2021/03/04 09:39:52;;;;;;;9.43;5.03;;;;;;;9.99;44.45;96572.50;5050708;28;20068;-69
2021/03/04 09:42:21;;;;;;;9.38;4.95;;;;;;;10.11;44.84;96577.38;5050899;28;20076;-69
2021/03/04 09:44:48;;;;;;;17.85;5.18;;;;;;;10.01;44.39;96570.25;5052216;28;20053;-69
2021/03/04 09:47:19;;;;;;;14.93;4.80;;;;;;;10.08;44.00;96570.66;5051366;28;20037;-69
2021/03/04 09:49:45;;;;;;;9.52;4.93;;;;;;;10.03;44.48;96573.50;5051775;28;20048;-69
2021/03/04 09:52:18;;;;;;;10.55;5.38;;;;;;;10.07;43.86;96562.78;5051137;28;20122;-69
2021/03/04 09:54:45;;;;;;;10.73;5.30;;;;;;;10.17;44.59;96560.59;5051573;28;20122;-69
2021/03/04 09:57:15;;;;;;;14.52;5.53;;;;;;;10.27;43.84;96550.63;5051231;28;20102;-69
2021/03/04 09:59:45;;;;;;;15.77;5.40;;;;;;;10.33;43.77;96549.38;5051928;28;20045;-68
2021/03/04 10:02:11;;;;;;;15.23;5.57;;;;;;;10.37;44.17;96550.34;5051606;28;20475;-70
2021/03/04 10:04:37;;;;;;;12.27;5.13;;;;;;;10.35;43.57;96547.16;5051035;28;20041;-69
2021/03/04 10:07:12;;;;;;;12.93;5.70;;;;;;;10.52;44.13;96543.72;5051403;28;20053;-69
2021/03/04 10:09:38;;;;;;;15.82;6.35;;;;;;;10.43;43.20;96540.94;5051093;28;20045;-69
2021/03/04 10:12:06;;;;;;;15.80;6.57;;;;;;;10.52;44.13;96538.25;5050923;28;20140;-70
2021/03/04 10:14:43;;;;;;;20.95;6.15;;;;;;;10.62;44.44;96530.63;5051327;28;20052;-70
2021/03/04 10:17:09;;;;;;;15.18;6.13;;;;;;;10.49;43.66;96530.72;5050782;28;20068;-71
2021/03/04 10:19:35;;;;;;;15.60;7.15;;;;;;;10.55;44.88;96534.94;5050628;28;20041;-71
2021/03/04 10:22:01;;;;;;;18.67;6.95;;;;;;;10.61;45.37;96528.22;5050660;28;20069;-70
2021/03/04 10:24:27;;;;;;;14.98;7.05;;;;;;;10.69;44.44;96525.53;5051504;28;20057;-69
2021/03/04 10:26:53;;;;;;;16.55;6.90;;;;;;;10.62;45.14;96525.19;5050450;28;20061;-69
2021/03/04 10:29:20;;;;;;;19.80;7.32;;;;;;;10.68;44.80;96521.19;5050789;28;20488;-70
2021/03/04 10:31:46;;;;;;;17.42;7.75;;;;;;;10.78;44.57;96516.59;5050550;28;20052;-70
2021/03/04 10:34:12;;;;;;;19.45;7.93;;;;;;;10.80;45.34;96522.53;5050602;28;20057;-69
2021/03/04 10:36:38;;;;;;;17.63;8.05;;;;;;;11.01;44.98;96514.56;5049475;28;20049;-69
2021/03/04 10:39:04;;;;;;;22.15;7.78;;;;;;;10.99;44.61;96506.72;5049085;28;20049;-71
2021/03/04 10:41:29;;;;;;;17.90;7.45;;;;;;;11.08;44.49;96504.03;5050978;28;20045;-69
2021/03/04 10:43:55;;;;;;;21.65;8.43;;;;;;;11.24;43.93;96502.44;5050350;28;20053;-69
2021/03/04 10:46:22;;;;;;;19.05;8.80;;;;;;;11.31;43.26;96496.53;5050687;28;20062;-69
2021/03/04 10:48:48;;;;;;;25.60;9.45;;;;;;;11.23;42.29;96504.38;5050762;28;20045;-70
2021/03/04 10:51:14;;;;;;;20.70;9.95;;;;;;;11.33;43.11;96499.72;5050745;28;20045;-69
2021/03/04 10:53:40;;;;;;;20.33;9.00;;;;;;;11.45;43.49;96492.53;5050097;28;20041;-69
2021/03/04 10:56:06;;;;;;;17.92;9.38;;;;;;;11.54;42.09;96495.28;5050395;28;20505;-69
2021/03/04 10:58:32;;;;;;;24.20;9.48;;;;;;;11.59;42.17;96497.00;5050050;28;20041;-69
2021/03/04 11:00:58;;;;;;;25.67;10.00;;;;;;;11.65;39.69;96485.63;5050608;28;20053;-69
2021/03/04 11:03:25;;;;;;;19.90;8.75;;;;;;;11.76;40.32;96486.91;5049849;28;20403;-71
2021/03/04 11:05:51;;;;;;;15.80;7.90;;;;;;;12.09;41.69;96483.69;5050395;28;20103;-69
2021/03/04 11:08:17;;;;;;;18.63;9.35;;;;;;;12.39;39.23;96476.38;5050423;28;20412;-69
2021/03/04 11:10:44;;;;;;;21.48;9.32;;;;;;;12.58;37.88;96473.28;5049740;28;20044;-69
2021/03/04 11:13:10;;;;;;;22.42;9.13;;;;;;;12.68;40.35;96472.09;5050534;28;20040;-69
2021/03/04 11:15:36;;;;;;;19.02;7.97;;;;;;;12.92;38.02;96466.03;5049871;28;20127;-68
2021/03/04 11:18:02;;;;;;;19.20;8.13;;;;;;;12.99;35.66;96463.56;5049159;28;20459;-72
2021/03/04 11:20:29;;;;;;;17.30;8.20;;;;;;;13.11;35.73;96468.34;5029456;28;20057;-70
2021/03/04 11:22:55;;;;;;;15.80;7.78;;;;;;;12.99;35.72;96455.38;5030715;28;20049;-69
2021/03/04 11:25:21;;;;;;;16.27;8.73;;;;;;;12.71;36.17;96461.31;5029247;28;20045;-70
2021/03/04 11:27:47;;;;;;;17.35;8.43;;;;;;;12.79;36.50;96446.00;5038905;28;20550;-70
2021/03/04 11:30:13;;;;;;;15.48;8.18;;;;;;;12.90;38.20;96446.44;5044402;28;20041;-70
2021/03/04 11:32:39;;;;;;;15.77;7.93;;;;;;;13.13;35.96;96439.53;5052326;28;20048;-69
2021/03/04 11:35:07;;;;;;;21.42;8.02;;;;;;;13.33;36.37;96429.75;5053627;28;20064;-71